DXXX/LFW METAR and TAF weather

Enter ICAO airport designator
Station Type Date Time Source
DXXX METAR 2021/03/08 12:00 UTC NOAA

DXXX 081200Z 20013KT 160V230 9999 FEW015 33/25 Q1010 NOSIG


Station Type Date Time Source
DXXX Decoded METAR 2021/03/08 12:00 UTC NOAA

Lome, Togo (DXXX) 06-10N 001-15E 25M
Mar 08, 2021 - 07:00 AM EST / 2021.03.08 1200 UTC
Wind: from the SSW (200 degrees) at 15 MPH (13 KT) (direction variable):0
Visibility: greater than 7 mile(s):0
Sky conditions: mostly clear
Temperature: 91 F (33 C)
Heat index: 103.5 F (39.7 C):1
Dew Point: 77 F (25 C)
Relative Humidity: 62%
Pressure (altimeter): 29.83 in. Hg (1010 hPa)
ob: DXXX 081200Z 20013KT 160V230 9999 FEW015 33/25 Q1010 NOSIG
cycle: 12

Station Type Date Time Source
DXXX TAF 2021/03/08 12:21 UTC NOAA

TAF DXXX 081100Z 0812/0918 22013KT 9999 FEW015 PROB30
TEMPO 0815/0819 TS BKN012 FEW020CB

Example: see airport list